createdAt,value
2017-09-12T00:01:44.028Z,99353.13
2017-09-12T00:04:19.135Z,99360.70
2017-09-12T00:06:53.691Z,99363.09
2017-09-12T00:09:28.355Z,99349.86
2017-09-12T00:12:03.420Z,99354.93
2017-09-12T00:14:38.212Z,99352.03
2017-09-12T00:17:12.995Z,99355.27
2017-09-12T00:19:47.744Z,99358.76
2017-09-12T00:22:22.627Z,99348.44
2017-09-12T00:24:57.372Z,99360.86
2017-09-12T00:27:32.955Z,99364.19
2017-09-12T00:30:07.791Z,99357.67
2017-09-12T00:32:42.290Z,99368.09
2017-09-12T00:35:17.442Z,99370.95
2017-09-12T00:37:52.356Z,99365.09
2017-09-12T00:40:26.860Z,99369.78
2017-09-12T00:43:01.615Z,99369.70
2017-09-12T00:45:36.011Z,99364.59
2017-09-12T00:48:11.146Z,99373.99
2017-09-12T00:50:45.960Z,99377.24
2017-09-12T00:53:20.427Z,99378.88
2017-09-12T00:55:55.116Z,99380.62
2017-09-12T00:58:29.802Z,99370.91
2017-09-12T01:01:04.575Z,99381.61
2017-09-12T01:03:39.648Z,99379.23
2017-09-12T01:06:15.876Z,99379.67
2017-09-12T01:08:51.055Z,99391.19
2017-09-12T01:11:25.603Z,99394.19
2017-09-12T01:14:00.581Z,99392.30
2017-09-12T01:16:34.886Z,99402.13
2017-09-12T01:19:09.753Z,99409.83
2017-09-12T01:21:44.465Z,99408.08
2017-09-12T01:24:18.850Z,99405.81
2017-09-12T01:26:53.955Z,99408.19
2017-09-12T01:29:28.332Z,99404.16
2017-09-12T01:32:03.163Z,99405.50
2017-09-12T01:34:38.108Z,99411.77
2017-09-12T01:37:13.202Z,99402.23
2017-09-12T01:39:48.075Z,99401.07
2017-09-12T01:42:23.003Z,99409.77
2017-09-12T01:44:57.891Z,99402.27
2017-09-12T01:47:32.818Z,99404.30
2017-09-12T01:50:07.283Z,99401.25
2017-09-12T01:52:42.309Z,99402.84
2017-09-12T01:55:17.144Z,99402.66
2017-09-12T01:57:51.959Z,99394.67
2017-09-12T02:00:27.358Z,99399.52
2017-09-12T02:03:02.755Z,99403.53
2017-09-12T02:05:37.450Z,99404.51
2017-09-12T02:08:12.355Z,99404.94
2017-09-12T02:10:47.293Z,99403.39
2017-09-12T02:13:22.021Z,99415.20
2017-09-12T02:15:56.751Z,99408.28
2017-09-12T02:18:31.624Z,99421.41
2017-09-12T02:21:06.388Z,99411.87
2017-09-12T02:23:41.121Z,99414.19
2017-09-12T02:26:15.656Z,99414.86
2017-09-12T02:28:50.374Z,99421.05
2017-09-12T02:31:25.047Z,99418.02
2017-09-12T02:33:59.857Z,99413.47
2017-09-12T02:36:34.584Z,99420.39
2017-09-12T02:39:09.690Z,99420.09
2017-09-12T02:41:45.281Z,99413.27
2017-09-12T02:44:19.607Z,99423.30
2017-09-12T02:46:54.698Z,99425.33
2017-09-12T02:49:29.344Z,99426.23
2017-09-12T02:52:04.053Z,99437.77
2017-09-12T02:54:38.870Z,99418.11
2017-09-12T02:57:13.741Z,99428.17
2017-09-12T02:59:48.316Z,99424.02
2017-09-12T03:02:22.917Z,99426.06
2017-09-12T03:04:57.629Z,99429.97
2017-09-12T03:07:32.443Z,99427.66
2017-09-12T03:10:07.187Z,99433.17
2017-09-12T03:12:41.947Z,99428.47
2017-09-12T03:15:16.675Z,99437.77
2017-09-12T03:17:51.688Z,99435.11
2017-09-12T03:20:26.212Z,99442.80
2017-09-12T03:23:00.917Z,99448.12
2017-09-12T03:25:35.863Z,99435.54
2017-09-12T03:28:10.544Z,99444.99
2017-09-12T03:30:45.352Z,99457.09
2017-09-12T03:33:20.056Z,99455.34
2017-09-12T03:35:54.701Z,99453.11
2017-09-12T03:38:29.501Z,99451.28
2017-09-12T03:41:04.287Z,99459.70
2017-09-12T03:43:38.924Z,99456.12
2017-09-12T03:46:13.767Z,99456.31
2017-09-12T03:48:48.635Z,99452.63
2017-09-12T03:51:23.016Z,99448.81
2017-09-12T03:53:57.926Z,99459.31
2017-09-12T03:56:32.678Z,99458.20
2017-09-12T03:59:07.263Z,99461.45
2017-09-12T04:01:41.991Z,99470.16
2017-09-12T04:04:16.654Z,99471.43
2017-09-12T04:06:51.307Z,99477.48
2017-09-12T04:09:26.175Z,99474.67
2017-09-12T04:12:00.840Z,99473.59
2017-09-12T04:14:35.740Z,99487.98
2017-09-12T04:17:10.483Z,99478.98
2017-09-12T04:19:45.367Z,99489.28
2017-09-12T04:22:20.150Z,99491.13
2017-09-12T04:24:55.365Z,99480.71
2017-09-12T04:27:29.923Z,99483.86
2017-09-12T04:30:04.576Z,99485.12
2017-09-12T04:32:39.311Z,99483.95
2017-09-12T04:35:14.391Z,99483.31
2017-09-12T04:37:49.396Z,99485.88
2017-09-12T04:40:23.727Z,99491.44
2017-09-12T04:42:58.767Z,99484.52
2017-09-12T04:45:33.324Z,99492.98
2017-09-12T04:48:07.897Z,99499.85
2017-09-12T04:50:42.994Z,99498.06
2017-09-12T04:53:17.686Z,99505.23
2017-09-12T04:55:52.383Z,99507.76
2017-09-12T04:58:27.321Z,99509.09
2017-09-12T05:01:02.112Z,99509.09
2017-09-12T05:03:36.995Z,99512.23
2017-09-12T05:06:11.727Z,99524.83
2017-09-12T05:08:46.116Z,99516.88
2017-09-12T05:11:21.180Z,99527.20
2017-09-12T05:13:56.012Z,99526.20
2017-09-12T05:16:30.702Z,99533.57
2017-09-12T05:19:06.390Z,99537.95
2017-09-12T05:21:41.192Z,99540.91
2017-09-12T05:24:15.779Z,99546.33
2017-09-12T05:26:50.704Z,99554.98
2017-09-12T05:29:25.517Z,99556.97
2017-09-12T05:32:00.345Z,99550.16
2017-09-12T05:34:35.080Z,99560.09
2017-09-12T05:37:09.699Z,99559.26
2017-09-12T05:39:44.355Z,99558.13
2017-09-12T05:42:19.532Z,99562.20
2017-09-12T05:44:54.835Z,99564.68
2017-09-12T05:47:29.540Z,99574.66
2017-09-12T05:50:04.320Z,99571.89
2017-09-12T05:52:39.235Z,99586.27
2017-09-12T05:55:13.747Z,99582.05
2017-09-12T05:57:48.431Z,99589.75
2017-09-12T06:00:23.183Z,99594.55
2017-09-12T06:02:57.967Z,99600.30
2017-09-12T06:05:32.621Z,99598.95
2017-09-12T06:08:07.343Z,99609.86
2017-09-12T06:10:42.255Z,99594.14
2017-09-12T06:13:17.096Z,99600.28
2017-09-12T06:15:51.763Z,99604.27
2017-09-12T06:18:26.546Z,99595.43
2017-09-12T06:21:01.247Z,99599.13
2017-09-12T06:23:36.308Z,99605.54
2017-09-12T06:26:11.251Z,99604.03
2017-09-12T06:28:45.981Z,99615.84
2017-09-12T06:31:21.616Z,99615.41
2017-09-12T06:33:56.344Z,99612.75
2017-09-12T06:36:31.027Z,99615.77
2017-09-12T06:39:05.112Z,99620.01
2017-09-12T06:41:39.816Z,99615.94
2017-09-12T06:44:14.694Z,99619.33
2017-09-12T06:46:49.511Z,99616.95
2017-09-12T06:49:24.039Z,99626.98
2017-09-12T06:51:58.909Z,99630.09
2017-09-12T06:54:33.697Z,99633.67
2017-09-12T06:57:08.692Z,99642.49
2017-09-12T06:59:43.047Z,99641.97
2017-09-12T07:02:18.099Z,99645.60
2017-09-12T07:04:52.888Z,99651.67
2017-09-12T07:07:27.650Z,99655.69
2017-09-12T07:10:02.144Z,99655.54
2017-09-12T07:12:36.893Z,99663.19
2017-09-12T07:15:11.851Z,99673.95
2017-09-12T07:17:46.700Z,99677.44
2017-09-12T07:20:22.225Z,99674.36
2017-09-12T07:22:57.083Z,99686.66
2017-09-12T07:25:31.499Z,99685.16
2017-09-12T07:28:06.539Z,99697.36
2017-09-12T07:30:41.331Z,99694.42
2017-09-12T07:33:16.125Z,99691.23
2017-09-12T07:35:51.123Z,99708.62
2017-09-12T07:38:25.904Z,99709.73
2017-09-12T07:41:00.802Z,99723.70
2017-09-12T07:43:35.496Z,99722.09
2017-09-12T07:46:10.525Z,99726.44
2017-09-12T07:48:45.198Z,99736.18
2017-09-12T07:51:19.795Z,99744.64
2017-09-12T07:53:54.583Z,99747.08
2017-09-12T07:56:29.556Z,99745.48
2017-09-12T07:59:04.256Z,99760.83
2017-09-12T08:01:39.388Z,99764.89
2017-09-12T08:04:14.204Z,99764.91
2017-09-12T08:06:49.187Z,99764.30
2017-09-12T08:09:23.802Z,99774.55
2017-09-12T08:11:58.407Z,99768.78
2017-09-12T08:14:33.397Z,99768.30
2017-09-12T08:17:07.999Z,99787.45
2017-09-12T08:19:42.696Z,99785.91
2017-09-12T08:22:17.504Z,99789.63
2017-09-12T08:24:52.310Z,99775.80
2017-09-12T08:27:26.932Z,99786.42
2017-09-12T08:30:01.448Z,99782.33
2017-09-12T08:32:37.281Z,99785.11
2017-09-12T08:35:12.081Z,99793.20
2017-09-12T08:37:47.965Z,99797.70
2017-09-12T08:40:22.859Z,99790.03
2017-09-12T08:42:57.892Z,99799.45
2017-09-12T08:45:32.491Z,99798.03
2017-09-12T08:48:07.103Z,99805.80
2017-09-12T08:50:41.903Z,99802.32
2017-09-12T08:53:16.528Z,99810.89
2017-09-12T08:55:51.135Z,99807.45
2017-09-12T08:58:25.735Z,99813.09
2017-09-12T09:01:00.818Z,99808.77
2017-09-12T09:03:35.948Z,99814.59
2017-09-12T09:06:10.777Z,99818.58
2017-09-12T09:08:45.574Z,99814.59
2017-09-12T09:11:20.191Z,99825.98
2017-09-12T09:13:54.993Z,99816.06
2017-09-12T09:16:29.804Z,99817.17
2017-09-12T09:19:04.498Z,99825.69
2017-09-12T09:21:39.292Z,99819.33
2017-09-12T09:24:14.137Z,99818.13
2017-09-12T09:26:48.711Z,99820.73
2017-09-12T09:29:23.587Z,99820.86
2017-09-12T09:31:58.442Z,99820.44
2017-09-12T09:34:33.198Z,99821.75
2017-09-12T09:37:07.724Z,99832.20
2017-09-12T09:39:42.271Z,99817.16
2017-09-12T09:42:17.180Z,99816.08
2017-09-12T09:44:52.077Z,99822.92
2017-09-12T09:47:26.679Z,99825.11
2017-09-12T09:50:01.114Z,99819.39
2017-09-12T09:52:35.923Z,99830.80
2017-09-12T09:55:10.805Z,99840.36
2017-09-12T09:57:45.699Z,99833.41
2017-09-12T10:00:20.723Z,99837.92
2017-09-12T10:02:55.354Z,99837.81
2017-09-12T10:05:30.273Z,99841.77
2017-09-12T10:08:05.169Z,99848.25
2017-09-12T10:10:40.077Z,99852.34
2017-09-12T10:13:14.494Z,99854.73
2017-09-12T10:15:49.354Z,99855.05
2017-09-12T10:18:24.460Z,99862.70
2017-09-12T10:20:59.059Z,99865.41
2017-09-12T10:23:33.664Z,99865.62
2017-09-12T10:26:08.324Z,99866.88
2017-09-12T10:28:43.004Z,99866.34
2017-09-12T10:31:17.707Z,99858.72
2017-09-12T10:33:52.609Z,99873.56
2017-09-12T10:36:27.401Z,99885.58
2017-09-12T10:39:02.203Z,99880.34
2017-09-12T10:41:37.028Z,99874.41
2017-09-12T10:44:11.569Z,99873.77
2017-09-12T10:46:46.479Z,99870.22
2017-09-12T10:49:21.187Z,99876.69
2017-09-12T10:51:56.019Z,99874.05
2017-09-12T10:54:30.250Z,99869.70
2017-09-12T10:57:05.147Z,99876.52
2017-09-12T11:02:13.627Z,99876.45
2017-09-12T11:04:48.359Z,99882.26
2017-09-12T11:07:23.292Z,99883.14
2017-09-12T11:09:58.052Z,99881.23
2017-09-12T11:12:32.744Z,99885.94
2017-09-12T11:15:07.411Z,99890.09
2017-09-12T11:17:42.107Z,99891.30
2017-09-12T11:20:16.912Z,99897.56
2017-09-12T11:22:51.791Z,99906.73
2017-09-12T11:25:26.716Z,99898.33
2017-09-12T11:28:02.275Z,99917.48
2017-09-12T11:30:37.039Z,99929.70
2017-09-12T11:33:11.643Z,99928.90
2017-09-12T11:35:46.488Z,99927.91
2017-09-12T11:38:21.629Z,99922.33
2017-09-12T11:40:56.425Z,99913.46
2017-09-12T11:43:31.335Z,99911.03
2017-09-12T11:46:06.047Z,99911.95
2017-09-12T11:48:40.840Z,99910.15
2017-09-12T11:51:15.675Z,99911.97
2017-09-12T11:53:50.275Z,99913.16
2017-09-12T11:56:25.217Z,99914.41
2017-09-12T11:59:00.045Z,99917.66
2017-09-12T12:01:34.619Z,99912.06
2017-09-12T12:04:09.428Z,99918.85
2017-09-12T12:06:44.351Z,99915.39
2017-09-12T12:09:19.204Z,99922.24
2017-09-12T12:11:54.044Z,99926.00
2017-09-12T12:14:28.853Z,99925.31
2017-09-12T12:17:03.653Z,99925.41
2017-09-12T12:19:38.589Z,99924.63
2017-09-12T12:22:13.368Z,99918.28
2017-09-12T12:24:48.260Z,99929.83
2017-09-12T12:27:23.073Z,99917.15
2017-09-12T12:29:57.822Z,99922.40
2017-09-12T12:32:32.317Z,99928.57
2017-09-12T12:35:07.024Z,99942.45
2017-09-12T12:37:41.731Z,99949.51
2017-09-12T12:40:16.842Z,99935.45
2017-09-12T12:42:51.523Z,99945.78
2017-09-12T12:45:26.310Z,99948.33
2017-09-12T12:48:00.975Z,99957.95
2017-09-12T12:50:36.415Z,99956.64
2017-09-12T12:53:11.229Z,99964.91
2017-09-12T12:55:45.939Z,99975.20
2017-09-12T12:58:20.932Z,99988.27
2017-09-12T13:00:55.909Z,99986.90
2017-09-12T13:03:30.607Z,99986.09
2017-09-12T13:06:05.288Z,99983.29
2017-09-12T13:08:39.932Z,99985.87
2017-09-12T13:11:14.820Z,99997.55
2017-09-12T13:13:49.185Z,99994.84
2017-09-12T13:16:24.079Z,100009.64
2017-09-12T13:18:58.815Z,100010.88
2017-09-12T13:21:33.637Z,100017.64
2017-09-12T13:24:08.306Z,100031.58
2017-09-12T13:26:42.863Z,100029.16
2017-09-12T13:29:17.808Z,100032.75
2017-09-12T13:31:52.557Z,100030.73
2017-09-12T13:34:28.135Z,100034.03
2017-09-12T13:37:02.875Z,100041.08
2017-09-12T13:39:37.627Z,100052.80
2017-09-12T13:42:12.307Z,100061.57
2017-09-12T13:44:47.216Z,100068.69
2017-09-12T13:47:22.144Z,100062.78
2017-09-12T13:49:56.971Z,100070.29
2017-09-12T13:52:31.608Z,100075.09
2017-09-12T13:55:06.257Z,100081.82
2017-09-12T13:57:41.192Z,100093.64
2017-09-12T14:00:19.026Z,100092.25
2017-09-12T14:02:53.884Z,100094.59
2017-09-12T14:05:28.667Z,100096.88
2017-09-12T14:08:03.476Z,100101.84
2017-09-12T14:10:38.339Z,100108.07
2017-09-12T14:13:12.912Z,100102.61
2017-09-12T14:15:47.764Z,100101.38
2017-09-12T14:18:22.124Z,100097.95
2017-09-12T14:20:56.948Z,100098.78
2017-09-12T14:23:31.574Z,100103.69
2017-09-12T14:26:06.156Z,100112.97
2017-09-12T14:28:41.305Z,100111.15
2017-09-12T14:31:15.792Z,100098.17
2017-09-12T14:33:50.758Z,100092.08
2017-09-12T14:36:25.807Z,100090.91
2017-09-12T14:39:00.519Z,100097.63
2017-09-12T14:41:35.403Z,100093.16
2017-09-12T14:44:09.900Z,100091.42
2017-09-12T14:46:44.918Z,100085.69
2017-09-12T14:49:19.625Z,100088.54
2017-09-12T14:51:54.645Z,100087.36
2017-09-12T14:54:29.403Z,100093.36
2017-09-12T14:57:04.342Z,100086.03
2017-09-12T14:59:38.988Z,100095.13
2017-09-12T15:02:13.894Z,100099.27
2017-09-12T15:04:48.831Z,100111.44
2017-09-12T15:07:23.552Z,100098.98
2017-09-12T15:09:58.285Z,100094.25
2017-09-12T15:12:33.202Z,100099.57
2017-09-12T15:15:08.010Z,100099.09
2017-09-12T15:17:42.740Z,100104.72
2017-09-12T15:20:17.742Z,100100.63
2017-09-12T15:22:52.537Z,100108.90
2017-09-12T15:25:27.181Z,100111.27
2017-09-12T15:28:01.937Z,100116.11
2017-09-12T15:30:36.783Z,100116.83
2017-09-12T15:33:11.263Z,100114.63
2017-09-12T15:35:46.295Z,100125.26
2017-09-12T15:38:20.817Z,100126.27
2017-09-12T15:40:55.458Z,100125.30
2017-09-12T15:43:30.442Z,100124.17
2017-09-12T15:46:05.099Z,100124.29
2017-09-12T15:48:40.042Z,100116.89
2017-09-12T15:51:15.421Z,100119.66
2017-09-12T15:53:50.440Z,100122.73
2017-09-12T15:56:24.994Z,100130.25
2017-09-12T15:58:59.846Z,100125.81
2017-09-12T16:01:34.648Z,100132.82
2017-09-12T16:04:09.431Z,100128.73
2017-09-12T16:06:44.377Z,100132.58
2017-09-12T16:09:19.206Z,100132.58
2017-09-12T16:11:54.060Z,100133.99
2017-09-12T16:14:29.160Z,100142.14
2017-09-12T16:17:04.161Z,100171.22
2017-09-12T16:19:39.076Z,100163.83
2017-09-12T16:22:13.960Z,100161.77
2017-09-12T16:24:48.756Z,100154.77
2017-09-12T16:27:24.527Z,100154.88
2017-09-12T16:29:59.333Z,100166.91
2017-09-12T16:32:34.143Z,100166.89
2017-09-12T16:35:08.921Z,100163.09
2017-09-12T16:37:43.893Z,100169.73
2017-09-12T16:40:18.733Z,100172.11
2017-09-12T16:42:53.709Z,100167.70
2017-09-12T16:45:28.539Z,100174.75
2017-09-12T16:48:03.271Z,100181.04
2017-09-12T16:50:38.063Z,100176.72
2017-09-12T16:53:12.855Z,100173.73
2017-09-12T16:55:47.981Z,100176.86
2017-09-12T16:58:22.317Z,100177.88
2017-09-12T17:00:57.382Z,100175.41
2017-09-12T17:03:32.011Z,100171.75
2017-09-12T17:06:06.776Z,100176.44
2017-09-12T17:08:41.939Z,100171.24
2017-09-12T17:11:16.588Z,100182.95
2017-09-12T17:13:52.059Z,100186.03
2017-09-12T17:16:26.737Z,100190.35
2017-09-12T17:19:01.683Z,100183.99
2017-09-12T17:21:36.355Z,100193.34
2017-09-12T17:24:11.056Z,100193.41
2017-09-12T17:26:45.662Z,100204.62
2017-09-12T17:29:20.638Z,100233.91
2017-09-12T17:31:55.232Z,100225.98
2017-09-12T17:34:30.057Z,100225.17
2017-09-12T17:37:04.703Z,100222.30
2017-09-12T17:39:39.435Z,100222.00
2017-09-12T17:42:14.334Z,100222.22
2017-09-12T17:44:49.912Z,100217.23
2017-09-12T17:47:24.535Z,100219.63
2017-09-12T17:49:59.335Z,100225.06
2017-09-12T17:52:34.351Z,100226.68
2017-09-12T17:55:10.704Z,100223.97
2017-09-12T17:57:45.863Z,100221.61
2017-09-12T18:00:20.215Z,100226.69
2017-09-12T18:02:55.147Z,100225.02
2017-09-12T18:05:29.837Z,100233.64
2017-09-12T18:08:04.562Z,100228.65
2017-09-12T18:10:39.262Z,100225.19
2017-09-12T18:13:13.955Z,100226.34
2017-09-12T18:15:48.792Z,100232.59
2017-09-12T18:18:23.832Z,100234.08
2017-09-12T18:21:04.138Z,100236.17
2017-09-12T18:23:39.553Z,100236.04
2017-09-12T18:26:14.240Z,100236.30
2017-09-12T18:28:49.164Z,100239.78
2017-09-12T18:31:24.049Z,100246.63
2017-09-12T18:33:58.753Z,100242.69
2017-09-12T18:36:33.595Z,100247.04
2017-09-12T18:39:08.284Z,100251.26
2017-09-12T18:41:43.104Z,100246.91
2017-09-12T18:44:18.165Z,100244.48
2017-09-12T18:46:53.039Z,100252.02
2017-09-12T18:49:27.838Z,100258.35
2017-09-12T18:52:02.628Z,100264.80
2017-09-12T18:54:37.131Z,100265.83
2017-09-12T18:57:12.572Z,100265.15
2017-09-12T18:59:47.019Z,100270.84
2017-09-12T19:02:21.820Z,100273.98
2017-09-12T19:04:56.613Z,100276.13
2017-09-12T19:07:31.583Z,100279.66
2017-09-12T19:10:06.330Z,100283.02
2017-09-12T19:12:41.135Z,100285.75
2017-09-12T19:15:16.033Z,100294.04
2017-09-12T19:17:50.963Z,100297.12
2017-09-12T19:20:25.886Z,100295.53
2017-09-12T19:23:06.618Z,100291.52
2017-09-12T19:25:41.654Z,100285.00
2017-09-12T19:28:16.346Z,100281.84
2017-09-12T19:30:51.125Z,100277.64
2017-09-12T19:33:26.045Z,100281.59
2017-09-12T19:36:00.780Z,100285.54
2017-09-12T19:38:35.624Z,100281.52
2017-09-12T19:41:10.239Z,100277.63
2017-09-12T19:43:45.219Z,100279.14
2017-09-12T19:46:20.203Z,100284.56
2017-09-12T19:48:55.104Z,100278.05
2017-09-12T19:51:29.947Z,100279.13
2017-09-12T19:54:04.741Z,100282.97
2017-09-12T19:56:39.591Z,100276.41
2017-09-12T19:59:14.423Z,100274.61
2017-09-12T20:01:49.135Z,100280.05
2017-09-12T20:04:24.247Z,100272.81
2017-09-12T20:06:58.765Z,100273.17
2017-09-12T20:09:33.662Z,100277.11
2017-09-12T20:12:08.342Z,100283.12
2017-09-12T20:14:43.073Z,100281.92
2017-09-12T20:17:17.709Z,100283.59
2017-09-12T20:19:52.416Z,100283.05
2017-09-12T20:22:27.946Z,100279.59
2017-09-12T20:25:03.019Z,100280.78
2017-09-12T20:27:38.084Z,100284.69
2017-09-12T20:30:12.795Z,100281.70
2017-09-12T20:32:47.583Z,100286.20
2017-09-12T20:35:22.688Z,100281.91
2017-09-12T20:37:57.519Z,100293.88
2017-09-12T20:40:32.218Z,100290.25
2017-09-12T20:43:06.980Z,100287.55
2017-09-12T20:45:41.780Z,100282.84
2017-09-12T20:48:16.433Z,100283.33
2017-09-12T20:50:51.414Z,100281.14
2017-09-12T20:53:26.272Z,100282.26
2017-09-12T20:56:01.164Z,100284.12
2017-09-12T20:58:35.959Z,100285.11
2017-09-12T21:01:10.705Z,100286.19
2017-09-12T21:03:45.527Z,100286.47
2017-09-12T21:06:20.562Z,100283.99
2017-09-12T21:08:55.287Z,100287.97
2017-09-12T21:11:30.041Z,100294.53
2017-09-12T21:14:04.855Z,100293.24
2017-09-12T21:16:39.575Z,100293.33
2017-09-12T21:19:14.291Z,100295.23
2017-09-12T21:21:49.211Z,100290.21
2017-09-12T21:24:23.914Z,100300.66
2017-09-12T21:26:58.795Z,100301.06
2017-09-12T21:29:33.334Z,100299.73
2017-09-12T21:32:08.151Z,100300.14
2017-09-12T21:34:42.779Z,100297.16
2017-09-12T21:37:17.441Z,100300.30
2017-09-12T21:39:52.056Z,100296.11
2017-09-12T21:42:26.721Z,100292.50
2017-09-12T21:45:01.516Z,100282.83
2017-09-12T21:47:36.171Z,100277.27
2017-09-12T21:50:10.827Z,100280.03
2017-09-12T21:52:45.659Z,100274.13
2017-09-12T21:55:20.263Z,100271.95
2017-09-12T21:57:54.890Z,100278.72
2017-09-12T22:00:29.661Z,100274.72
2017-09-12T22:03:04.476Z,100270.78
2017-09-12T22:05:39.040Z,100267.53
2017-09-12T22:08:13.672Z,100264.98
2017-09-12T22:10:48.486Z,100261.28
2017-09-12T22:13:23.367Z,100265.89
2017-09-12T22:15:58.080Z,100262.14
2017-09-12T22:18:32.786Z,100256.22
2017-09-12T22:21:08.388Z,100245.52
2017-09-12T22:23:43.312Z,100229.86
2017-09-12T22:26:18.995Z,100224.71
2017-09-12T22:28:53.656Z,100225.00
2017-09-12T22:31:29.157Z,100228.73
2017-09-12T22:34:03.531Z,100218.72
2017-09-12T22:36:38.650Z,100229.78
2017-09-12T22:39:13.414Z,100226.53
2017-09-12T22:41:49.764Z,100225.38
2017-09-12T22:44:24.239Z,100218.21
2017-09-12T22:46:58.985Z,100212.66
2017-09-12T22:49:33.639Z,100213.73
2017-09-12T22:52:08.585Z,100200.26
2017-09-12T22:54:43.095Z,100189.37
2017-09-12T22:57:17.940Z,100185.28
2017-09-12T22:59:52.704Z,100180.84
2017-09-12T23:02:27.217Z,100178.13
2017-09-12T23:05:02.232Z,100182.50
2017-09-12T23:07:36.899Z,100171.97
2017-09-12T23:10:11.439Z,100172.45
2017-09-12T23:12:45.935Z,100170.59
2017-09-12T23:15:20.927Z,100169.95
2017-09-12T23:17:55.751Z,100160.05
2017-09-12T23:20:30.568Z,100162.20
2017-09-12T23:23:05.550Z,100159.45
2017-09-12T23:25:40.355Z,100150.51
2017-09-12T23:28:15.156Z,100132.55
2017-09-12T23:30:50.013Z,100124.39
2017-09-12T23:33:24.790Z,100118.01
2017-09-12T23:35:59.143Z,100114.47
2017-09-12T23:38:33.955Z,100103.66
2017-09-12T23:41:08.672Z,100099.64
2017-09-12T23:43:43.368Z,100082.61
2017-09-12T23:46:18.288Z,100081.06
2017-09-12T23:48:53.099Z,100080.81
2017-09-12T23:51:27.741Z,100085.09
2017-09-12T23:54:03.644Z,100082.34
2017-09-12T23:56:38.248Z,100090.03
2017-09-12T23:59:12.863Z,100082.98
